Accueil
METAR-TAF:

METAR-TAF

Aéroports :

Aéroport international de Zaporijia

Zaporijia, Ukraine

latitude: 47-52-02N, longitude: 035-18-59E, altitude: 114 m

Observation

Le bulletin a été fait il y a 30 minutes, à 00:00 UTC
Vent 2 kt de sud
Température -3°C
Humidité 100%
Pression 1022 hPa
Visibilité: 0500 m
brouillard givrant

METAR: UKDE 270000Z 17001MPS 1100 0500S FZFG NSC M03/M03 Q1022 R20L/090070 TEMPO 0100 FZFG VV001

Heure: 02:30 (00:30 UTC)

Prévision

Le bulletin a été fait il y a 1 heure et 25 minutes, à 23:05 UTC
Prévision valable du 27 à 00 UTC au 27 à 09 UTC
Vent 6 kt de sud-ouest
Visibilité: 1100 m
Nuages fragmentés à une hauteur de 400 ft
brume
Temporairement
du 27 à 00 UTC au 27 à 07 UTC
Visibilité: 0100 m
à une hauteur de 100 ft
brouillard givrant

TAF: UKDE 262305Z 2700/2709 22003MPS 1100 BR BKN004 TX03/2709Z TNM02/2704Z TEMPO 2700/2707 0100 FZFG VV001

Observations et prévisions météorologiques de plus de 4000 aéroports (messages METAR et TAF).

Les stations disponibles sont représentées par des disques jaunes et rouges sur la carte.

Passer la souris dessus pour voir le nom de la station.

Cliquer dessus pour voir les observations et prévisions météorologiques.

Pour changer de carte: cliquez sur les boutons verts avec une croix noire pour zoomer, sur le bouton vert avec un tiret pour effectuer un zoom arrière, ou sur les flèches vertes pour les cartes adjacentes.


METAR-TAF: